ポルト・アレグレ の空港の天気 - METARとTAF

ポルト・アレグレ国際空港 ( SBPA / POA ) - ブラジル リオグランデ・ド・スル州ポルト・アレグレ
飛行場実況気象(Metar)
観測時間01/29 05:00 BRST (01/29 07:00 UTC)
風向・風速東北東 3m/s
視程10km以上
天気現象
なし
気温19℃
湿度88%
気圧1012hPa
METARSBPA 290700Z 06005KT CAVOK 19/17 Q1012
過去の天気等 Google飛行場航空写真 Wunderground天気予報

過去48時間のMETAR

飛行場予報(TAF)
発表時間: 1/29 01:00 BRST (1/29 03:00 UTC)
予報対象時間: 29日4時 BRST ~ 30日4時 BRST
風向・風速東南東 4m/s
視程10km以上
少しの雲 雲底高度 610m
29日11時 BRST ~ 29日13時 BRST に徐々に
風向・風速東南東 7m/s
29日22時 BRST ~ 29日24時 BRST に徐々に
風向・風速東南東 4m/s
TAF SBPA 290300Z 2906/3006 12008KT 9999 FEW020 TN20/2908Z TX28/2918Z
BECMG 2913/2915 11013KT
BECMG 3000/3002 11007KT RMK PEU